Biltmore Forest, North Carolina
Current Conditions -  °F | °C
As of 12:54 PM on Monday 24 Nov 2014 (Local Time) from KAVL Reporting Station
Clear Clear  
Wind Chill: 66°   Ceiling: Unl
Heat Index: 66°   Visibility: 10mi
Dew Point: 52°   Wind: 15mph
Humidity: 60%   Direction: 180°S
Pressure: 29.76"   Gusts: NA
Location:  35.5291°N, 82.5199°W
Report Text: KAVL 241754Z 18013KT 10SM CLR 19/11 A2976 RMK AO2 SLP063 T01890111 10189 20128 58001
Loading
Personal Weather Stations






























Interactive Weather Map New forecast layout! Learn more

10-Day Weather Forecast

Advertisements
Track Severe Weather on mobile